createdAt,value
2016-07-19T00:00:13.143Z,25.05
2016-07-19T00:01:13.136Z,25.09
2016-07-19T00:02:13.140Z,25.09
2016-07-19T00:03:13.852Z,25.18
2016-07-19T00:04:13.869Z,25.24
2016-07-19T00:05:12.449Z,25.33
2016-07-19T00:06:12.452Z,25.27
2016-07-19T00:07:13.466Z,25.23
2016-07-19T00:08:14.225Z,25.28
2016-07-19T00:09:14.735Z,25.14
2016-07-19T00:10:13.181Z,25.33
2016-07-19T00:11:13.893Z,25.23
2016-07-19T00:12:13.918Z,25.24
2016-07-19T00:13:13.197Z,25.23
2016-07-19T00:14:13.213Z,25.23
2016-07-19T00:15:12.500Z,25.21
2016-07-19T00:16:13.214Z,25.21
2016-07-19T00:17:13.226Z,25.27
2016-07-19T00:18:13.773Z,25.18
2016-07-19T00:19:13.229Z,25.24
2016-07-19T00:20:15.097Z,25.2
2016-07-19T00:21:13.240Z,25.13
2016-07-19T00:22:13.953Z,25.2
2016-07-19T00:23:13.959Z,25.17
2016-07-19T00:24:13.963Z,25.09
2016-07-19T00:25:13.970Z,25.13
2016-07-19T00:26:13.986Z,25.2
2016-07-19T00:27:13.978Z,25.17
2016-07-19T00:28:13.276Z,25.17
2016-07-19T00:29:13.125Z,25.21
2016-07-19T00:30:12.580Z,25.09
2016-07-19T00:31:15.146Z,25.18
2016-07-19T00:32:13.312Z,25.14
2016-07-19T00:33:14.010Z,25.13
2016-07-19T00:34:12.605Z,25.1
2016-07-19T00:35:13.315Z,25.2
2016-07-19T00:36:13.322Z,25.2
2016-07-19T00:37:14.032Z,25.15
2016-07-19T00:38:14.049Z,25.13
2016-07-19T00:39:14.053Z,25.09
2016-07-19T00:40:13.345Z,25.1
2016-07-19T00:41:13.349Z,25.14
2016-07-19T00:42:14.371Z,25.15
2016-07-19T00:43:13.361Z,25.14
2016-07-19T00:44:12.656Z,25.09
2016-07-19T00:45:14.077Z,25.18
2016-07-19T00:46:12.667Z,25.1
2016-07-19T00:47:14.088Z,25.1
2016-07-19T00:48:14.093Z,25.09
2016-07-19T00:49:13.402Z,25.17
2016-07-19T00:50:13.397Z,25.15
2016-07-19T00:51:12.692Z,25.15
2016-07-19T00:52:14.114Z,25.17
2016-07-19T00:53:13.909Z,25.14
2016-07-19T00:54:14.123Z,25.15
2016-07-19T00:55:13.423Z,25.09
2016-07-19T00:56:14.141Z,25.06
2016-07-19T00:57:14.142Z,25.09
2016-07-19T00:58:13.436Z,25.13
2016-07-19T00:59:13.441Z,25.08
2016-07-19T01:00:13.451Z,25.08
2016-07-19T01:01:13.453Z,25.13
2016-07-19T01:02:14.045Z,25.1
2016-07-19T01:03:13.461Z,24.96
2016-07-19T01:04:13.315Z,25
2016-07-19T01:05:14.179Z,25.03
2016-07-19T01:06:15.274Z,25
2016-07-19T01:07:14.190Z,25.09
2016-07-19T01:08:13.644Z,25.06
2016-07-19T01:09:12.835Z,25.05
2016-07-19T01:10:14.209Z,25.09
2016-07-19T01:11:12.845Z,25.13
2016-07-19T01:12:13.511Z,25.08
2016-07-19T01:13:13.513Z,25.09
2016-07-19T01:14:12.820Z,25.09
2016-07-19T01:15:13.526Z,25.08
2016-07-19T01:16:14.236Z,25.03
2016-07-19T01:17:14.756Z,25.06
2016-07-19T01:18:13.549Z,25.09
2016-07-19T01:19:13.551Z,25.1
2016-07-19T01:20:12.843Z,25.06
2016-07-19T01:21:14.265Z,25.05
2016-07-19T01:22:14.267Z,25.13
2016-07-19T01:23:14.272Z,25
2016-07-19T01:24:14.278Z,25.02
2016-07-19T01:25:14.293Z,25.03
2016-07-19T01:26:13.734Z,24.96
2016-07-19T01:27:12.880Z,25.03
2016-07-19T01:28:15.097Z,25.03
2016-07-19T01:29:13.593Z,25.1
2016-07-19T01:30:13.608Z,25.06
2016-07-19T01:31:13.608Z,25.05
2016-07-19T01:32:14.321Z,25.05
2016-07-19T01:33:12.913Z,25.13
2016-07-19T01:34:13.622Z,25.06
2016-07-19T01:35:14.336Z,25.02
2016-07-19T01:36:13.632Z,24.96
2016-07-19T01:37:13.644Z,25.02
2016-07-19T01:38:14.349Z,24.93
2016-07-19T01:39:15.409Z,24.99
2016-07-19T01:40:13.652Z,25.03
2016-07-19T01:41:12.948Z,25
2016-07-19T01:42:13.662Z,24.98
2016-07-19T01:43:14.375Z,25
2016-07-19T01:44:14.378Z,24.85
2016-07-19T01:45:14.385Z,24.85
2016-07-19T01:46:14.387Z,24.88
2016-07-19T01:47:14.393Z,24.85
2016-07-19T01:48:14.400Z,24.88
2016-07-19T01:49:14.404Z,24.8
2016-07-19T01:50:15.154Z,24.81
2016-07-19T01:51:13.000Z,24.81
2016-07-19T01:52:13.708Z,24.81
2016-07-19T01:53:14.419Z,24.83
2016-07-19T01:54:14.425Z,24.83
2016-07-19T01:55:14.430Z,24.71
2016-07-19T01:56:13.731Z,24.78
2016-07-19T01:57:13.021Z,24.76
2016-07-19T01:58:14.444Z,24.78
2016-07-19T01:59:13.032Z,24.83
2016-07-19T02:00:13.041Z,24.84
2016-07-19T02:01:15.310Z,24.95
2016-07-19T02:02:13.753Z,24.76
2016-07-19T02:03:13.759Z,24.87
2016-07-19T02:04:13.763Z,24.88
2016-07-19T02:05:13.789Z,24.78
2016-07-19T02:06:13.774Z,24.88
2016-07-19T02:07:14.484Z,24.73
2016-07-19T02:08:14.492Z,24.8
2016-07-19T02:09:14.544Z,24.77
2016-07-19T02:10:13.797Z,24.69
2016-07-19T02:11:14.504Z,24.8
2016-07-19T02:12:14.049Z,24.65
2016-07-19T02:13:13.806Z,24.65
2016-07-19T02:14:15.285Z,24.78
2016-07-19T02:15:14.525Z,24.78
2016-07-19T02:16:13.824Z,24.78
2016-07-19T02:17:13.832Z,24.77
2016-07-19T02:18:13.832Z,24.84
2016-07-19T02:19:13.133Z,24.73
2016-07-19T02:20:13.131Z,24.67
2016-07-19T02:21:14.557Z,24.8
2016-07-19T02:22:13.851Z,24.77
2016-07-19T02:23:14.912Z,24.8
2016-07-19T02:24:14.560Z,24.73
2016-07-19T02:25:13.861Z,24.73
2016-07-19T02:26:13.866Z,24.69
2016-07-19T02:27:13.880Z,24.67
2016-07-19T02:28:13.879Z,24.69
2016-07-19T02:29:14.586Z,24.68
2016-07-19T02:30:13.180Z,24.73
2016-07-19T02:31:14.595Z,24.76
2016-07-19T02:32:13.892Z,24.71
2016-07-19T02:33:13.193Z,24.73
2016-07-19T02:34:14.618Z,24.68
2016-07-19T02:35:13.910Z,24.55
2016-07-19T02:36:14.879Z,24.4
2016-07-19T02:37:14.622Z,24.55
2016-07-19T02:38:14.022Z,24.62
2016-07-19T02:39:13.924Z,24.73
2016-07-19T02:40:14.638Z,24.64
2016-07-19T02:41:13.934Z,24.6
2016-07-19T02:42:13.941Z,24.68
2016-07-19T02:43:14.649Z,24.81
2016-07-19T02:44:14.657Z,24.68
2016-07-19T02:45:13.955Z,24.76
2016-07-19T02:46:14.671Z,24.73
2016-07-19T02:47:15.058Z,24.77
2016-07-19T02:48:14.674Z,24.77
2016-07-19T02:49:14.687Z,24.69
2016-07-19T02:50:13.976Z,24.77
2016-07-19T02:51:13.274Z,24.81
2016-07-19T02:52:14.694Z,24.69
2016-07-19T02:53:13.992Z,24.73
2016-07-19T02:54:13.290Z,24.83
2016-07-19T02:55:14.004Z,24.83
2016-07-19T02:56:14.713Z,24.77
2016-07-19T02:57:14.722Z,24.83
2016-07-19T02:58:14.973Z,24.84
2016-07-19T02:59:14.023Z,24.77
2016-07-19T03:00:13.380Z,24.73
2016-07-19T03:01:13.334Z,24.81
2016-07-19T03:02:14.047Z,24.84
2016-07-19T03:03:14.747Z,24.81
2016-07-19T03:04:13.343Z,24.91
2016-07-19T03:05:14.051Z,24.81
2016-07-19T03:06:14.058Z,24.93
2016-07-19T03:07:14.071Z,24.78
2016-07-19T03:08:14.776Z,24.9
2016-07-19T03:09:14.531Z,24.85
2016-07-19T03:10:14.782Z,24.87
2016-07-19T03:11:14.235Z,24.83
2016-07-19T03:12:14.798Z,24.8
2016-07-19T03:13:14.804Z,24.85
2016-07-19T03:14:13.392Z,24.84
2016-07-19T03:15:14.107Z,24.88
2016-07-19T03:16:13.402Z,24.77
2016-07-19T03:17:13.410Z,24.84
2016-07-19T03:18:14.122Z,24.76
2016-07-19T03:19:14.837Z,24.71
2016-07-19T03:20:14.130Z,24.73
2016-07-19T03:21:14.137Z,24.91
2016-07-19T03:22:15.025Z,24.9
2016-07-19T03:23:14.146Z,24.84
2016-07-19T03:24:14.301Z,24.76
2016-07-19T03:25:14.864Z,24.8
2016-07-19T03:26:13.514Z,24.91
2016-07-19T03:27:14.166Z,24.81
2016-07-19T03:28:14.174Z,24.77
2016-07-19T03:29:14.179Z,24.8
2016-07-19T03:30:14.182Z,24.73
2016-07-19T03:31:14.898Z,24.77
2016-07-19T03:32:14.899Z,24.78
2016-07-19T03:33:15.572Z,24.69
2016-07-19T03:34:14.202Z,24.65
2016-07-19T03:35:14.210Z,24.68
2016-07-19T03:36:14.214Z,24.49
2016-07-19T03:37:14.223Z,24.6
2016-07-19T03:38:14.222Z,24.62
2016-07-19T03:39:14.230Z,24.64
2016-07-19T03:40:14.941Z,24.65
2016-07-19T03:41:14.235Z,24.55
2016-07-19T03:42:14.249Z,24.53
2016-07-19T03:43:14.246Z,24.62
2016-07-19T03:44:15.562Z,24.57
2016-07-19T03:45:13.549Z,24.53
2016-07-19T03:46:15.955Z,24.6
2016-07-19T03:47:14.270Z,24.6
2016-07-19T03:48:14.980Z,24.6
2016-07-19T03:49:14.282Z,24.55
2016-07-19T03:50:14.279Z,24.58
2016-07-19T03:51:13.577Z,24.62
2016-07-19T03:52:14.287Z,24.55
2016-07-19T03:53:13.593Z,24.64
2016-07-19T03:54:15.008Z,24.53
2016-07-19T03:55:15.108Z,24.64
2016-07-19T03:56:14.369Z,24.65
2016-07-19T03:57:14.169Z,24.6
2016-07-19T03:58:15.023Z,24.57
2016-07-19T03:59:15.031Z,24.68
2016-07-19T04:00:14.328Z,24.58
2016-07-19T04:01:14.333Z,24.5
2016-07-19T04:02:15.083Z,24.73
2016-07-19T04:03:14.341Z,24.62
2016-07-19T04:04:15.069Z,24.65
2016-07-19T04:05:14.368Z,24.61
2016-07-19T04:06:14.381Z,24.52
2016-07-19T04:07:13.658Z,24.57
2016-07-19T04:08:15.071Z,24.65
2016-07-19T04:09:15.150Z,24.58
2016-07-19T04:10:15.084Z,24.65
2016-07-19T04:11:13.761Z,24.73
2016-07-19T04:12:14.387Z,24.67
2016-07-19T04:13:16.023Z,24.65
2016-07-19T04:14:14.444Z,24.65
2016-07-19T04:15:15.106Z,24.76
2016-07-19T04:16:14.434Z,24.62
2016-07-19T04:17:14.410Z,24.68
2016-07-19T04:18:14.420Z,24.57
2016-07-19T04:19:15.182Z,24.5
2016-07-19T04:20:15.895Z,24.55
2016-07-19T04:21:14.427Z,24.55
2016-07-19T04:22:14.916Z,24.64
2016-07-19T04:23:14.439Z,24.55
2016-07-19T04:24:15.149Z,24.58
2016-07-19T04:25:14.461Z,24.47
2016-07-19T04:26:15.160Z,24.55
2016-07-19T04:27:13.802Z,24.69
2016-07-19T04:28:15.165Z,24.58
2016-07-19T04:29:15.488Z,24.58
2016-07-19T04:30:15.270Z,24.62
2016-07-19T04:31:14.479Z,24.62
2016-07-19T04:32:14.505Z,24.64
2016-07-19T04:33:15.193Z,24.55
2016-07-19T04:34:14.509Z,24.58
2016-07-19T04:35:15.199Z,24.67
2016-07-19T04:36:15.704Z,24.69
2016-07-19T04:37:14.502Z,24.71
2016-07-19T04:38:13.906Z,24.73
2016-07-19T04:39:14.511Z,24.78
2016-07-19T04:40:15.231Z,24.8
2016-07-19T04:41:14.662Z,24.71
2016-07-19T04:42:14.529Z,24.64
2016-07-19T04:43:14.628Z,24.69
2016-07-19T04:44:13.829Z,24.65
2016-07-19T04:45:14.935Z,24.61
2016-07-19T04:46:14.601Z,24.47
2016-07-19T04:47:15.282Z,24.57
2016-07-19T04:48:13.873Z,24.64
2016-07-19T04:49:14.561Z,24.65
2016-07-19T04:50:14.597Z,24.68
2016-07-19T04:51:13.865Z,24.6
2016-07-19T04:52:14.649Z,24.8
2016-07-19T04:53:14.629Z,24.84
2016-07-19T04:54:26.224Z,24.73
2016-07-19T04:55:15.391Z,24.85
2016-07-19T04:56:15.328Z,24.8
2016-07-19T04:57:15.437Z,24.95
2016-07-19T04:58:14.618Z,25.02
2016-07-19T04:59:15.836Z,25.1
2016-07-19T05:00:14.693Z,25.09
2016-07-19T05:01:15.379Z,25.23
2016-07-19T05:02:14.728Z,25.14
2016-07-19T05:03:13.925Z,25.21
2016-07-19T05:04:14.754Z,25.33
2016-07-19T05:05:15.345Z,25.39
2016-07-19T05:06:14.777Z,25.33
2016-07-19T05:07:15.359Z,25.51
2016-07-19T05:08:16.102Z,25.6
2016-07-19T05:09:15.465Z,25.58
2016-07-19T05:10:15.377Z,25.61
2016-07-19T05:11:15.475Z,25.69
2016-07-19T05:12:15.447Z,25.73
2016-07-19T05:13:14.886Z,25.77
2016-07-19T05:14:14.762Z,25.75
2016-07-19T05:15:16.473Z,25.72
2016-07-19T05:16:14.784Z,25.77
2016-07-19T05:17:15.465Z,25.83
2016-07-19T05:18:15.633Z,25.87
2016-07-19T05:19:14.849Z,25.87
2016-07-19T05:20:14.974Z,25.87
2016-07-19T05:21:15.564Z,25.9
2016-07-19T05:22:15.240Z,25.85
2016-07-19T05:23:15.721Z,25.98
2016-07-19T05:24:14.947Z,25.94
2016-07-19T05:25:14.787Z,26.12
2016-07-19T05:26:14.868Z,26.15
2016-07-19T05:27:15.569Z,26.28
2016-07-19T05:28:15.520Z,26.3
2016-07-19T05:29:16.093Z,26.32
2016-07-19T05:30:14.881Z,26.29
2016-07-19T05:31:14.912Z,26.28
2016-07-19T05:32:15.592Z,26.29
2016-07-19T05:33:15.629Z,26.3
2016-07-19T05:34:14.906Z,26.32
2016-07-19T05:35:15.649Z,26.37
2016-07-19T05:36:14.954Z,26.39
2016-07-19T05:37:14.963Z,26.51
2016-07-19T05:38:14.219Z,26.55
2016-07-19T05:39:14.964Z,26.57
2016-07-19T05:40:14.915Z,26.57
2016-07-19T05:41:15.123Z,26.58
2016-07-19T05:42:14.993Z,26.62
2016-07-19T05:43:15.176Z,26.67
2016-07-19T05:44:15.028Z,26.69
2016-07-19T05:45:15.691Z,26.65
2016-07-19T05:46:14.942Z,26.76
2016-07-19T05:47:15.069Z,26.67
2016-07-19T05:48:16.795Z,26.87
2016-07-19T05:49:15.119Z,26.8
2016-07-19T05:50:15.778Z,26.76
2016-07-19T05:51:15.064Z,26.85
2016-07-19T05:52:15.040Z,26.84
2016-07-19T05:53:15.863Z,26.81
2016-07-19T05:54:15.180Z,26.87
2016-07-19T05:55:15.099Z,26.88
2016-07-19T05:56:15.060Z,26.87
2016-07-19T05:57:15.051Z,26.85
2016-07-19T05:58:15.991Z,27.07
2016-07-19T05:59:15.861Z,27.06
2016-07-19T06:00:15.537Z,27.09
2016-07-19T06:01:15.929Z,27.06
2016-07-19T06:02:15.528Z,27.12
2016-07-19T06:03:15.900Z,27.1
2016-07-19T06:04:15.195Z,27.17
2016-07-19T06:05:15.970Z,27.17
2016-07-19T06:06:15.849Z,27.29
2016-07-19T06:07:17.023Z,27.25
2016-07-19T06:08:15.176Z,27.31
2016-07-19T06:09:15.972Z,27.22
2016-07-19T06:10:14.588Z,27.21
2016-07-19T06:11:15.934Z,27.32
2016-07-19T06:12:16.259Z,27.34
2016-07-19T06:13:14.539Z,27.32
2016-07-19T06:14:17.074Z,27.37
2016-07-19T06:15:15.392Z,27.41
2016-07-19T06:16:15.316Z,27.41
2016-07-19T06:17:15.325Z,27.51
2016-07-19T06:18:16.125Z,27.59
2016-07-19T06:19:17.014Z,27.51
2016-07-19T06:20:15.350Z,27.51
2016-07-19T06:21:15.419Z,27.51
2016-07-19T06:22:15.505Z,27.54
2016-07-19T06:23:16.111Z,27.59
2016-07-19T06:24:16.915Z,27.63
2016-07-19T06:25:14.708Z,27.63
2016-07-19T06:26:17.542Z,27.69
2016-07-19T06:27:14.687Z,27.65
2016-07-19T06:28:15.487Z,27.7
2016-07-19T06:29:15.557Z,27.6
2016-07-19T06:30:16.245Z,27.72
2016-07-19T06:31:16.568Z,27.66
2016-07-19T06:32:16.313Z,27.7
2016-07-19T06:33:16.193Z,27.81
2016-07-19T06:34:16.239Z,27.77
2016-07-19T06:35:15.495Z,27.81
2016-07-19T06:36:16.597Z,27.85
2016-07-19T06:37:14.856Z,27.92
2016-07-19T06:38:17.233Z,27.85
2016-07-19T06:39:16.329Z,27.87
2016-07-19T06:40:14.787Z,27.82
2016-07-19T06:41:16.285Z,27.87
2016-07-19T06:42:15.522Z,27.85
2016-07-19T06:43:17.231Z,28.02
2016-07-19T06:44:16.330Z,27.97
2016-07-19T06:45:15.624Z,27.97
2016-07-19T06:46:15.741Z,28.06
2016-07-19T06:47:16.345Z,28.04
2016-07-19T06:48:17.196Z,27.99
2016-07-19T06:49:15.627Z,28.02
2016-07-19T06:50:16.343Z,28
2016-07-19T06:51:15.703Z,27.96
2016-07-19T06:52:15.767Z,28.02
2016-07-19T06:53:16.495Z,28.09
2016-07-19T06:54:16.536Z,28.03
2016-07-19T06:55:16.007Z,28.09
2016-07-19T06:56:16.609Z,28.07
2016-07-19T06:57:16.470Z,28.11
2016-07-19T06:58:16.560Z,28.14
2016-07-19T06:59:16.432Z,28.14
2016-07-19T07:00:15.731Z,28.12
2016-07-19T07:01:16.590Z,28.17
2016-07-19T07:02:15.804Z,28.11
2016-07-19T07:03:15.788Z,28.15
2016-07-19T07:04:15.866Z,28.3
2016-07-19T07:05:16.643Z,28.29
2016-07-19T07:06:16.611Z,28.36
2016-07-19T07:07:16.637Z,28.33
2016-07-19T07:08:16.657Z,28.34
2016-07-19T07:09:16.660Z,28.33
2016-07-19T07:10:17.722Z,28.41
2016-07-19T07:11:15.987Z,28.41
2016-07-19T07:12:15.185Z,28.41
2016-07-19T07:13:16.000Z,28.39
2016-07-19T07:14:15.954Z,28.37
2016-07-19T07:15:15.941Z,28.44
2016-07-19T07:16:15.182Z,28.44
2016-07-19T07:17:16.625Z,28.46
2016-07-19T07:18:15.296Z,28.44
2016-07-19T07:19:15.982Z,28.55
2016-07-19T07:20:15.976Z,28.58
2016-07-19T07:21:16.685Z,28.46
2016-07-19T07:22:16.865Z,28.49
2016-07-19T07:23:16.058Z,28.44
2016-07-19T07:24:16.127Z,28.43
2016-07-19T07:25:17.181Z,28.58
2016-07-19T07:26:16.146Z,28.56
2016-07-19T07:27:16.115Z,28.55
2016-07-19T07:28:17.023Z,28.66
2016-07-19T07:29:15.470Z,28.66
2016-07-19T07:30:16.571Z,28.66
2016-07-19T07:31:16.855Z,28.54
2016-07-19T07:32:16.902Z,28.59
2016-07-19T07:33:16.149Z,28.58
2016-07-19T07:34:16.939Z,28.58
2016-07-19T07:35:16.234Z,28.56
2016-07-19T07:36:16.205Z,28.56
2016-07-19T07:37:16.204Z,28.62
2016-07-19T07:38:16.251Z,28.61
2016-07-19T07:39:16.752Z,28.66
2016-07-19T07:40:16.306Z,28.62
2016-07-19T07:41:16.217Z,28.66
2016-07-19T07:42:16.356Z,28.7
2016-07-19T07:43:17.701Z,28.56
2016-07-19T07:44:16.304Z,28.49
2016-07-19T07:45:17.022Z,28.41
2016-07-19T07:46:16.406Z,28.3
2016-07-19T07:47:17.033Z,28.04
2016-07-19T07:48:17.126Z,28.03
2016-07-19T07:49:17.191Z,27.81
2016-07-19T07:50:15.692Z,27.87
2016-07-19T07:51:16.410Z,27.84
2016-07-19T07:52:16.504Z,27.77
2016-07-19T07:53:15.693Z,27.74
2016-07-19T07:54:17.126Z,27.7
2016-07-19T07:55:17.093Z,27.74
2016-07-19T07:56:17.524Z,27.7
2016-07-19T07:57:16.423Z,27.66
2016-07-19T07:58:17.219Z,27.66
2016-07-19T07:59:17.166Z,27.6
2016-07-19T08:00:16.520Z,27.5
2016-07-19T08:01:17.243Z,27.55
2016-07-19T08:02:17.186Z,27.6
2016-07-19T08:03:15.872Z,27.55
2016-07-19T08:04:16.551Z,27.57
2016-07-19T08:05:17.248Z,27.6
2016-07-19T08:06:16.500Z,27.5
2016-07-19T08:07:17.233Z,27.6
2016-07-19T08:08:16.548Z,27.74
2016-07-19T08:09:15.832Z,27.92
2016-07-19T08:10:17.424Z,27.84
2016-07-19T08:11:17.382Z,27.85
2016-07-19T08:12:17.347Z,27.79
2016-07-19T08:13:16.600Z,27.87
2016-07-19T08:14:18.158Z,27.77
2016-07-19T08:15:16.030Z,27.75
2016-07-19T08:16:16.661Z,27.67
2016-07-19T08:17:18.280Z,27.72
2016-07-19T08:18:17.385Z,27.66
2016-07-19T08:19:16.633Z,27.66
2016-07-19T08:20:17.350Z,27.65
2016-07-19T08:21:15.938Z,27.65
2016-07-19T08:22:16.002Z,27.6
2016-07-19T08:23:16.709Z,27.66
2016-07-19T08:24:16.013Z,27.51
2016-07-19T08:25:17.486Z,27.6
2016-07-19T08:26:17.372Z,27.57
2016-07-19T08:27:16.813Z,27.57
2016-07-19T08:28:17.531Z,27.55
2016-07-19T08:29:17.495Z,27.37
2016-07-19T08:30:19.081Z,27.37
2016-07-19T08:31:16.804Z,27.36
2016-07-19T08:32:17.472Z,27.37
2016-07-19T08:33:16.804Z,27.4
2016-07-19T08:34:16.791Z,27.37
2016-07-19T08:35:17.480Z,27.36
2016-07-19T08:36:17.611Z,27.28
2016-07-19T08:37:17.433Z,27.34
2016-07-19T08:38:17.669Z,27.22
2016-07-19T08:39:16.977Z,27.34
2016-07-19T08:40:16.070Z,27.24
2016-07-19T08:41:17.615Z,27.25
2016-07-19T08:42:17.519Z,27.21
2016-07-19T08:43:17.195Z,27.17
2016-07-19T08:44:17.565Z,27.17
2016-07-19T08:45:16.837Z,27.19
2016-07-19T08:46:19.596Z,27.12
2016-07-19T08:47:17.567Z,27.09
2016-07-19T08:48:17.594Z,27.22
2016-07-19T08:49:17.736Z,27.12
2016-07-19T08:50:16.948Z,27.28
2016-07-19T08:51:16.902Z,27.22
2016-07-19T08:52:16.924Z,27.14
2016-07-19T08:53:17.702Z,27.17
2016-07-19T08:55:17.881Z,27.24
2016-07-19T08:56:16.979Z,27.22
2016-07-19T08:57:18.837Z,27.19
2016-07-19T08:58:17.710Z,27.25
2016-07-19T08:59:16.922Z,27.28
2016-07-19T09:00:17.700Z,27.27
2016-07-19T09:01:16.285Z,27.27
2016-07-19T09:02:17.432Z,27.28
2016-07-19T09:03:17.171Z,27.27
2016-07-19T09:04:17.014Z,27.25
2016-07-19T09:05:17.767Z,27.25
2016-07-19T09:06:16.291Z,27.25
2016-07-19T09:07:17.887Z,27.28
2016-07-19T09:08:17.125Z,27.22
2016-07-19T09:09:17.782Z,27.25
2016-07-19T09:10:17.753Z,27.24
2016-07-19T09:11:16.364Z,27.24
2016-07-19T09:12:17.133Z,27.21
2016-07-19T09:13:17.078Z,27.24
2016-07-19T09:14:17.925Z,27.25
2016-07-19T09:15:17.093Z,27.22
2016-07-19T09:16:17.846Z,27.29
2016-07-19T09:17:17.966Z,27.27
2016-07-19T09:18:17.806Z,27.25
2016-07-19T09:19:17.900Z,27.25
2016-07-19T09:20:17.163Z,27.34
2016-07-19T09:21:17.121Z,27.34
2016-07-19T09:22:17.245Z,27.29
2016-07-19T09:23:17.980Z,27.31
2016-07-19T09:24:17.205Z,27.29
2016-07-19T09:25:17.249Z,27.29
2016-07-19T09:26:17.876Z,27.32
2016-07-19T09:27:17.239Z,27.24
2016-07-19T09:28:17.904Z,27.25
2016-07-19T09:29:17.843Z,27.32
2016-07-19T09:30:18.002Z,27.25
2016-07-19T09:31:17.222Z,27.24
2016-07-19T09:32:18.043Z,27.24
2016-07-19T09:33:16.540Z,27.28
2016-07-19T09:34:17.939Z,27.27
2016-07-19T09:35:18.000Z,27.27
2016-07-19T09:36:17.385Z,27.25
2016-07-19T09:37:18.081Z,27.28
2016-07-19T09:38:17.445Z,27.31
2016-07-19T09:39:17.390Z,27.27
2016-07-19T09:40:17.306Z,27.27
2016-07-19T09:41:18.176Z,27.31
2016-07-19T09:42:17.349Z,27.25
2016-07-19T09:43:18.054Z,27.25
2016-07-19T09:44:17.279Z,27.27
2016-07-19T09:45:18.014Z,27.24
2016-07-19T09:46:17.492Z,27.36
2016-07-19T09:47:17.460Z,27.36
2016-07-19T09:48:18.108Z,27.31
2016-07-19T09:49:16.798Z,27.27
2016-07-19T09:50:17.509Z,27.19
2016-07-19T09:51:18.315Z,27.27
2016-07-19T09:52:18.153Z,27.32
2016-07-19T09:53:17.334Z,27.32
2016-07-19T09:54:19.248Z,27.36
2016-07-19T09:55:17.467Z,27.37
2016-07-19T09:56:18.099Z,27.34
2016-07-19T09:57:17.832Z,27.34
2016-07-19T09:58:18.186Z,27.29
2016-07-19T09:59:17.473Z,27.25
2016-07-19T10:00:17.671Z,27.28
2016-07-19T10:01:17.553Z,27.29
2016-07-19T10:02:18.209Z,27.29
2016-07-19T10:03:19.180Z,27.28
2016-07-19T10:04:17.554Z,27.24
2016-07-19T10:05:18.173Z,27.32
2016-07-19T10:06:18.397Z,27.25
2016-07-19T10:07:17.492Z,27.32
2016-07-19T10:08:17.737Z,27.4
2016-07-19T10:09:17.704Z,27.31
2016-07-19T10:10:16.870Z,27.34
2016-07-19T10:11:18.358Z,27.29
2016-07-19T10:12:18.220Z,27.39
2016-07-19T10:13:18.435Z,27.36
2016-07-19T10:14:17.841Z,27.28
2016-07-19T10:15:18.364Z,27.29
2016-07-19T10:16:17.674Z,27.37
2016-07-19T10:17:17.659Z,27.31
2016-07-19T10:18:18.439Z,27.34
2016-07-19T10:19:17.806Z,27.28
2016-07-19T10:20:18.364Z,27.34
2016-07-19T10:21:17.655Z,27.24
2016-07-19T10:22:17.037Z,27.31
2016-07-19T10:23:17.577Z,27.36
2016-07-19T10:24:17.683Z,27.28
2016-07-19T10:25:19.094Z,27.43
2016-07-19T10:26:18.361Z,27.36
2016-07-19T10:27:16.901Z,27.39
2016-07-19T10:28:18.350Z,27.51
2016-07-19T10:29:18.372Z,27.41
2016-07-19T10:30:18.416Z,27.4
2016-07-19T10:31:18.545Z,27.41
2016-07-19T10:32:17.649Z,27.4
2016-07-19T10:33:17.765Z,27.6
2016-07-19T10:34:17.664Z,27.51
2016-07-19T10:35:17.739Z,27.46
2016-07-19T10:36:18.685Z,27.4
2016-07-19T10:37:18.479Z,27.43
2016-07-19T10:38:17.888Z,27.37
2016-07-19T10:39:18.412Z,27.36
2016-07-19T10:40:17.869Z,27.34
2016-07-19T10:41:17.013Z,27.32
2016-07-19T10:42:18.616Z,27.41
2016-07-19T10:43:19.490Z,27.37
2016-07-19T10:44:18.483Z,27.4
2016-07-19T10:45:18.519Z,27.27
2016-07-19T10:46:17.883Z,27.32
2016-07-19T10:47:17.183Z,27.31
2016-07-19T10:48:17.851Z,27.34
2016-07-19T10:49:18.011Z,27.39
2016-07-19T10:50:17.988Z,27.39
2016-07-19T10:51:17.802Z,27.27
2016-07-19T10:52:17.844Z,27.43
2016-07-19T10:53:19.040Z,27.4
2016-07-19T10:54:32.291Z,27.47
2016-07-19T10:55:18.010Z,27.57
2016-07-19T10:56:17.829Z,27.63
2016-07-19T10:57:17.860Z,27.5
2016-07-19T10:58:17.914Z,27.5
2016-07-19T10:59:17.910Z,27.51
2016-07-19T11:00:17.964Z,27.51
2016-07-19T11:01:17.876Z,27.62
2016-07-19T11:02:17.890Z,27.55
2016-07-19T11:03:18.635Z,27.51
2016-07-19T11:04:18.677Z,27.54
2016-07-19T11:05:18.030Z,27.49
2016-07-19T11:06:18.753Z,27.51
2016-07-19T11:07:18.065Z,27.65
2016-07-19T11:08:18.748Z,27.51
2016-07-19T11:09:18.802Z,27.7
2016-07-19T11:10:18.123Z,27.65
2016-07-19T11:11:17.939Z,27.63
2016-07-19T11:12:18.830Z,27.82
2016-07-19T11:13:18.293Z,27.77
2016-07-19T11:14:18.712Z,27.79
2016-07-19T11:15:18.121Z,27.65
2016-07-19T11:16:18.796Z,27.49
2016-07-19T11:17:18.197Z,27.49
2016-07-19T11:18:18.004Z,27.51
2016-07-19T11:19:18.125Z,27.6
2016-07-19T11:20:18.921Z,27.62
2016-07-19T11:21:18.004Z,27.6
2016-07-19T11:22:18.790Z,27.67
2016-07-19T11:23:18.891Z,27.57
2016-07-19T11:24:19.006Z,27.51
2016-07-19T11:25:17.501Z,27.43
2016-07-19T11:26:18.865Z,27.51
2016-07-19T11:27:18.121Z,27.47
2016-07-19T11:28:18.836Z,27.9
2016-07-19T11:29:18.084Z,27.77
2016-07-19T11:30:18.224Z,27.77
2016-07-19T11:31:18.891Z,27.88
2016-07-19T11:32:18.091Z,28.19
2016-07-19T11:33:18.956Z,28.07
2016-07-19T11:34:18.089Z,28.11
2016-07-19T11:35:18.801Z,27.92
2016-07-19T11:36:18.862Z,27.9
2016-07-19T11:37:18.898Z,27.66
2016-07-19T11:38:18.150Z,27.65
2016-07-19T11:39:19.024Z,27.59
2016-07-19T11:40:17.482Z,27.59
2016-07-19T11:41:18.244Z,27.5
2016-07-19T11:42:18.210Z,27.5
2016-07-19T11:43:19.217Z,27.5
2016-07-19T11:44:17.565Z,27.51
2016-07-19T11:45:17.626Z,27.55
2016-07-19T11:46:18.180Z,27.59
2016-07-19T11:47:17.562Z,27.57
2016-07-19T11:48:18.235Z,27.51
2016-07-19T11:49:19.030Z,27.59
2016-07-19T11:50:18.364Z,27.54
2016-07-19T11:51:18.915Z,27.57
2016-07-19T11:52:17.528Z,27.59
2016-07-19T11:53:17.566Z,27.57
2016-07-19T11:54:18.228Z,27.51
2016-07-19T11:55:18.326Z,27.5
2016-07-19T11:56:18.256Z,27.55
2016-07-19T11:57:18.981Z,27.59
2016-07-19T11:58:18.263Z,27.59
2016-07-19T11:59:18.302Z,27.55
2016-07-19T12:00:18.381Z,27.47
2016-07-19T12:01:19.021Z,27.41
2016-07-19T12:02:17.712Z,27.5
2016-07-19T12:03:17.745Z,27.5
2016-07-19T12:04:17.759Z,27.44
2016-07-19T12:05:19.067Z,27.41
2016-07-19T12:06:19.065Z,27.46
2016-07-19T12:07:18.381Z,27.46
2016-07-19T12:08:19.168Z,27.51
2016-07-19T12:09:18.484Z,27.47
2016-07-19T12:10:19.221Z,27.47
2016-07-19T12:11:19.087Z,27.47
2016-07-19T12:12:18.377Z,27.39
2016-07-19T12:13:18.381Z,27.47
2016-07-19T12:14:19.228Z,27.51
2016-07-19T12:15:18.401Z,27.5
2016-07-19T12:16:19.254Z,27.47
2016-07-19T12:17:20.251Z,27.44
2016-07-19T12:18:19.132Z,27.5
2016-07-19T12:19:19.205Z,27.43
2016-07-19T12:20:18.556Z,27.43
2016-07-19T12:21:19.256Z,27.44
2016-07-19T12:22:18.671Z,27.44
2016-07-19T12:23:18.589Z,27.46
2016-07-19T12:24:18.509Z,27.44
2016-07-19T12:25:17.770Z,27.44
2016-07-19T12:26:18.488Z,27.37
2016-07-19T12:27:18.576Z,27.37
2016-07-19T12:28:18.500Z,27.41
2016-07-19T12:29:18.610Z,27.46
2016-07-19T12:30:18.519Z,27.4
2016-07-19T12:31:19.406Z,27.41
2016-07-19T12:32:17.885Z,27.41
2016-07-19T12:33:19.325Z,27.43
2016-07-19T12:34:19.351Z,27.37
2016-07-19T12:35:19.307Z,27.31
2016-07-19T12:36:19.460Z,27.28
2016-07-19T12:37:18.841Z,27.41
2016-07-19T12:38:18.580Z,27.46
2016-07-19T12:39:18.637Z,27.29
2016-07-19T12:40:18.596Z,27.34
2016-07-19T12:41:19.446Z,27.24
2016-07-19T12:42:18.640Z,27.24
2016-07-19T12:43:18.643Z,27.28
2016-07-19T12:44:19.473Z,27.37
2016-07-19T12:45:18.849Z,27.43
2016-07-19T12:46:17.937Z,27.44
2016-07-19T12:47:18.672Z,27.39
2016-07-19T12:48:18.100Z,27.37
2016-07-19T12:49:19.611Z,27.4
2016-07-19T12:50:18.149Z,27.37
2016-07-19T12:51:19.425Z,27.43
2016-07-19T12:52:19.531Z,27.6
2016-07-19T12:53:18.699Z,27.5
2016-07-19T12:54:18.702Z,27.43
2016-07-19T12:55:18.708Z,27.21
2016-07-19T12:56:18.717Z,27.39
2016-07-19T12:57:19.482Z,27.47